Time;durP1;ratioP1;P1;durP2;ratioP2;P2;SDS_P1;SDS_P2;PMS_P1;PMS_P2;Temp;Humidity;BMP_temperature;BMP_pressure;BME280_temperature;BME280_humidity;BME280_pressure;Samples;Min_cycle;Max_cycle;Signal;HPM_P1;HPM_P2
2023/05/13 00:01:11;;;;;;;;;10.33;10.33;;;;;15.18;67.25;101419.66;4962753;28;45864;-70
2023/05/13 00:03:37;;;;;;;;;7.33;7.33;;;;;15.11;67.11;101401.25;4967175;28;45570;-69
2023/05/13 00:06:02;;;;;;;;;12.00;7.00;;;;;15.17;67.06;101415.28;4974895;28;45458;-70
2023/05/13 00:08:28;;;;;;;;;12.67;10.00;;;;;15.14;67.56;101414.41;4975134;28;45436;-71
2023/05/13 00:10:55;;;;;;;;;6.33;6.33;;;;;15.07;67.24;101400.41;4975858;28;45967;-73
2023/05/13 00:13:20;;;;;;;;;8.00;7.00;;;;;15.18;67.34;101422.28;4976459;28;45393;-70
2023/05/13 00:15:46;;;;;;;;;11.00;7.33;;;;;15.18;67.48;101426.72;4974283;28;45632;-70
2023/05/13 00:18:11;;;;;;;;;9.33;6.67;;;;;15.17;67.64;101412.66;4974839;28;45789;-70
2023/05/13 00:20:37;;;;;;;;;11.33;9.67;;;;;15.04;67.63;101395.13;4975301;28;45402;-71
2023/05/13 00:23:03;;;;;;;;;15.00;13.00;;;;;15.15;67.87;101414.41;4975672;28;45774;-70
2023/05/13 00:25:28;;;;;;;;;10.33;9.33;;;;;15.12;67.90;101406.53;4979663;28;45292;-70
2023/05/13 00:27:54;;;;;;;;;12.67;9.00;;;;;15.10;68.19;101410.94;4976759;28;45357;-71
2023/05/13 00:30:22;;;;;;;;;15.33;12.33;;;;;15.06;67.77;101406.53;4973452;28;45839;-72
2023/05/13 00:32:48;;;;;;;;;19.33;17.00;;;;;15.14;68.14;101427.59;4968408;28;45571;-71
2023/05/13 00:35:17;;;;;;;;;13.00;11.00;;;;;15.04;68.16;101411.84;4947715;28;45531;-71
2023/05/13 00:37:43;;;;;;;;;13.00;12.00;;;;;15.06;68.45;101417.97;4943025;28;45397;-71
2023/05/13 00:40:19;;;;;;;;;14.00;9.67;;;;;15.09;67.56;101425.03;4946580;28;45678;-70
2023/05/13 00:42:45;;;;;;;;;8.33;6.67;;;;;14.87;68.06;101395.22;4936139;28;45464;-71
2023/05/13 00:45:10;;;;;;;;;12.67;10.67;;;;;14.99;68.21;101410.97;4935428;28;45893;-70
2023/05/13 00:47:40;;;;;;;;;8.67;8.33;;;;;14.93;68.43;101402.25;4943293;28;46276;-71
2023/05/13 00:50:10;;;;;;;;;9.67;9.00;;;;;14.80;68.91;101389.09;4944071;28;45722;-71
2023/05/13 00:52:39;;;;;;;;;9.33;7.67;;;;;14.94;69.07;101422.44;4947996;28;45389;-71
2023/05/13 00:55:06;;;;;;;;;14.00;12.00;;;;;14.87;69.09;101410.16;4941548;28;45510;-70
2023/05/13 00:57:31;;;;;;;;;15.00;9.67;;;;;14.95;68.91;101424.19;4933325;28;47820;-71
2023/05/13 00:59:58;;;;;;;;;14.33;10.67;;;;;14.94;69.27;101433.00;4935836;28;45428;-70
2023/05/13 01:02:36;;;;;;;;;14.00;11.67;;;;;14.92;68.91;101425.06;4936226;28;45434;-71
2023/05/13 01:05:25;;;;;;;;;10.67;10.67;;;;;14.91;69.26;101433.03;4937775;28;45406;-70
2023/05/13 01:08:06;;;;;;;;;15.33;10.00;;;;;14.85;69.71;101436.53;4935419;28;45537;-70
2023/05/13 01:10:49;;;;;;;;;14.67;11.33;;;;;14.81;69.77;101440.09;4938286;28;45479;-70
2023/05/13 01:13:22;;;;;;;;;9.00;9.00;;;;;14.77;69.72;101420.75;4937651;28;45899;-71
2023/05/13 01:16:10;;;;;;;;;11.67;9.33;;;;;14.66;69.99;101403.22;4935911;28;45442;-70
2023/05/13 01:18:42;;;;;;;;;10.33;10.33;;;;;14.73;70.38;101413.75;4935127;28;46305;-70
2023/05/13 01:21:10;;;;;;;;;14.00;10.00;;;;;14.69;70.07;101404.13;4935278;28;45310;-70
2023/05/13 01:23:36;;;;;;;;;9.67;9.00;;;;;14.63;70.48;101396.22;4934905;28;45436;-70
2023/05/13 01:26:02;;;;;;;;;8.67;6.67;;;;;14.82;70.01;101426.00;4933829;28;45631;-70
2023/05/13 01:28:27;;;;;;;;;10.33;9.00;;;;;14.77;70.05;101410.22;4933895;28;47012;-70
2023/05/13 01:30:55;;;;;;;;;11.33;9.00;;;;;14.79;69.83;101418.13;4935026;28;46052;-71
2023/05/13 01:33:23;;;;;;;;;10.67;9.67;;;;;14.80;70.55;101425.13;4939742;28;45401;-71
2023/05/13 01:35:49;;;;;;;;;13.67;9.00;;;;;14.73;70.50;101413.75;4938787;28;45368;-70
2023/05/13 01:38:15;;;;;;;;;13.00;9.33;;;;;14.70;70.35;101407.63;4938224;28;47007;-70
2023/05/13 01:40:41;;;;;;;;;12.33;10.33;;;;;14.77;70.69;101428.66;4939789;28;45505;-70
2023/05/13 01:43:07;;;;;;;;;10.67;9.67;;;;;14.70;70.64;101419.03;4934668;28;45549;-70
2023/05/13 01:45:33;;;;;;;;;11.67;10.67;;;;;14.62;71.01;101407.66;4935912;28;45426;-70
2023/05/13 01:47:59;;;;;;;;;11.67;9.67;;;;;14.51;71.05;101380.41;4934191;28;47546;-71
2023/05/13 01:50:25;;;;;;;;;13.67;12.67;;;;;14.59;71.20;101407.66;4936146;28;45486;-70
2023/05/13 01:52:51;;;;;;;;;8.33;8.33;;;;;14.75;70.78;101440.09;4954396;28;45366;-69
2023/05/13 01:55:16;;;;;;;;;12.33;11.33;;;;;14.73;71.35;101437.47;4954791;28;45722;-70
2023/05/13 01:57:42;;;;;;;;;21.33;18.00;;;;;14.65;71.19;101422.59;4957422;28;45462;-70
2023/05/13 02:00:08;;;;;;;;;23.67;18.33;;;;;14.62;71.21;101423.47;4954912;28;45373;-71
2023/05/13 02:02:33;;;;;;;;;15.67;14.00;;;;;14.57;70.94;101409.44;4955521;28;45306;-71
2023/05/13 02:04:59;;;;;;;;;11.67;9.00;;;;;14.62;71.01;101429.63;4959041;28;45342;-71
2023/05/13 02:07:24;;;;;;;;;17.00;13.67;;;;;14.67;71.19;101434.88;4956497;28;46224;-71
2023/05/13 02:09:54;;;;;;;;;19.67;16.00;;;;;14.68;71.54;101447.16;4952891;28;45340;-70
2023/05/13 02:12:19;;;;;;;;;24.50;20.75;;;;;14.65;71.67;101438.41;4952979;28;45425;-69
2023/05/13 02:14:45;;;;;;;;;19.00;15.00;;;;;14.62;71.84;101441.94;4958024;28;45424;-70
2023/05/13 02:17:10;;;;;;;;;18.33;16.67;;;;;14.59;71.50;101434.00;4954030;28;45607;-70
2023/05/13 02:19:36;;;;;;;;;19.33;14.00;;;;;14.59;71.79;101437.53;4954310;28;45353;-71
2023/05/13 02:22:01;;;;;;;;;18.33;10.67;;;;;14.61;71.67;101440.16;4952535;28;45373;-70
2023/05/13 02:24:29;;;;;;;;;11.00;11.00;;;;;14.65;71.65;101443.69;4957241;28;45412;-70
2023/05/13 02:26:55;;;;;;;;;13.00;11.33;;;;;14.67;71.69;101441.91;4956751;28;45513;-70
2023/05/13 02:29:20;;;;;;;;;9.67;9.67;;;;;14.68;71.43;101444.53;4953571;28;45476;-71
2023/05/13 02:31:46;;;;;;;;;13.33;9.67;;;;;14.69;71.50;101446.28;4953661;28;45480;-71
2023/05/13 02:34:11;;;;;;;;;17.33;12.33;;;;;14.66;71.65;101433.09;4958670;28;45397;-71
2023/05/13 02:36:37;;;;;;;;;10.00;10.00;;;;;14.72;71.54;101435.72;4961619;28;45671;-69
2023/05/13 02:39:03;;;;;;;;;14.00;9.67;;;;;14.75;71.55;101451.53;4961753;28;45377;-70
2023/05/13 02:41:28;;;;;;;;;12.00;10.33;;;;;14.69;71.29;101427.84;4960556;28;45644;-69
2023/05/13 02:43:54;;;;;;;;;12.00;9.33;;;;;14.70;71.39;101419.03;4957911;28;45360;-70
2023/05/13 02:46:19;;;;;;;;;15.33;11.33;;;;;14.80;71.56;101427.78;4957388;28;46150;-70
2023/05/13 02:48:45;;;;;;;;;13.00;11.00;;;;;14.80;71.24;101425.13;4958605;28;45443;-71
2023/05/13 02:51:10;;;;;;;;;15.33;12.00;;;;;14.83;71.44;101426.03;4957501;28;45554;-71
2023/05/13 02:53:36;;;;;;;;;16.00;13.00;;;;;14.81;71.34;101427.78;4940979;28;45401;-70
2023/05/13 02:56:01;;;;;;;;;17.00;13.67;;;;;14.80;71.77;101427.78;4942062;28;46156;-70
2023/05/13 02:58:27;;;;;;;;;14.33;12.33;;;;;14.86;71.41;101432.16;4941518;28;45550;-70
2023/05/13 03:00:52;;;;;;;;;16.67;15.33;;;;;14.86;71.70;101434.81;4936754;28;45374;-70
2023/05/13 03:03:17;;;;;;;;;17.33;13.67;;;;;14.82;71.09;101426.00;4937888;28;45353;-69
2023/05/13 03:05:43;;;;;;;;;14.00;13.33;;;;;14.87;71.22;101436.53;4939430;28;45966;-69
2023/05/13 03:08:08;;;;;;;;;15.33;12.67;;;;;14.85;71.10;101436.53;4939163;28;45424;-70
2023/05/13 03:10:34;;;;;;;;;14.33;13.00;;;;;14.84;71.43;101440.94;4937802;28;45339;-70
2023/05/13 03:13:00;;;;;;;;;13.00;10.67;;;;;14.77;71.24;101426.03;4936439;28;45743;-70
2023/05/13 03:15:25;;;;;;;;;16.00;14.33;;;;;14.87;70.86;101436.53;4937793;28;45425;-69
2023/05/13 03:17:51;;;;;;;;;15.67;12.67;;;;;14.81;71.47;101443.59;4938565;28;45739;-70
2023/05/13 03:20:17;;;;;;;;;16.67;14.67;;;;;14.73;71.58;101429.56;4938681;28;45540;-70
2023/05/13 03:22:43;;;;;;;;;13.67;13.67;;;;;14.80;71.56;101446.25;4937394;28;45499;-69
2023/05/13 03:25:09;;;;;;;;;15.33;14.33;;;;;14.71;71.79;101428.72;4938620;28;46824;-70
2023/05/13 03:27:34;;;;;;;;;16.33;14.33;;;;;14.75;71.61;101427.78;4937191;28;45643;-70
2023/05/13 03:30:00;;;;;;;;;19.33;14.33;;;;;14.72;71.89;101426.94;4937844;28;45350;-70
2023/05/13 03:32:29;;;;;;;;;16.67;13.00;;;;;14.75;71.07;101430.44;4940163;28;45442;-71
2023/05/13 03:34:56;;;;;;;;;15.67;13.00;;;;;14.82;71.82;101440.06;4935178;28;46383;-70
2023/05/13 03:37:22;;;;;;;;;21.33;18.33;;;;;14.82;71.83;101441.84;4936738;28;45500;-70
2023/05/13 03:39:48;;;;;;;;;16.67;15.67;;;;;14.79;71.69;101445.38;4937183;28;45409;-70
2023/05/13 03:42:13;;;;;;;;;16.33;14.00;;;;;14.74;71.81;101438.38;4936664;28;45320;-69
2023/05/13 03:44:39;;;;;;;;;20.33;18.33;;;;;14.72;71.54;101438.38;4936391;28;46632;-70
2023/05/13 03:47:05;;;;;;;;;15.67;14.67;;;;;14.76;71.72;101449.75;4939737;28;45506;-70
2023/05/13 03:49:30;;;;;;;;;19.33;19.00;;;;;14.76;72.35;101460.31;4939867;28;45333;-70
2023/05/13 03:51:56;;;;;;;;;19.00;13.67;;;;;14.65;71.66;101436.63;4949805;28;45510;-69
2023/05/13 03:54:21;;;;;;;;;21.00;17.67;;;;;14.76;72.20;101452.41;4960632;28;45621;-69
2023/05/13 03:56:47;;;;;;;;;25.00;20.50;;;;;14.75;72.11;101455.94;4960818;28;45479;-68
2023/05/13 03:59:12;;;;;;;;;24.25;23.25;;;;;14.69;72.11;101448.03;4958035;28;45484;-71
2023/05/13 04:01:38;;;;;;;;;31.00;27.50;;;;;14.79;72.61;101468.22;4956849;28;45835;-70
2023/05/13 04:04:04;;;;;;;;;35.50;29.00;;;;;14.67;72.23;101445.41;4958574;28;46463;-69
2023/05/13 04:06:30;;;;;;;;;24.50;23.75;;;;;14.74;72.04;101462.97;4958205;28;45351;-69
2023/05/13 04:08:56;;;;;;;;;33.50;30.25;;;;;14.80;72.27;101473.47;4956976;28;45448;-68
2023/05/13 04:11:21;;;;;;;;;49.25;37.50;;;;;14.81;72.67;101474.38;4956114;28;45420;-69
2023/05/13 04:13:47;;;;;;;;;45.75;35.75;;;;;14.74;72.30;101456.81;4957778;28;48101;-70
2023/05/13 04:16:13;;;;;;;;;41.00;35.50;;;;;14.71;72.83;101465.63;4971061;28;45399;-69
2023/05/13 04:18:38;;;;;;;;;47.25;35.50;;;;;14.71;72.95;101473.53;4955945;28;45828;-70
2023/05/13 04:21:08;;;;;;;;;39.50;34.25;;;;;14.71;72.33;101470.00;4955679;28;45707;-69
2023/05/13 04:23:33;;;;;;;;;41.25;34.75;;;;;14.73;73.17;101471.75;4955679;28;45516;-69
2023/05/13 04:25:59;;;;;;;;;41.50;31.25;;;;;14.67;73.00;101470.91;4955844;28;45239;-71
2023/05/13 04:28:24;;;;;;;;;41.25;33.25;;;;;14.71;72.85;101473.53;4955709;28;45748;-71
2023/05/13 04:30:50;;;;;;;;;43.00;34.75;;;;;14.71;72.95;101477.91;4955948;28;45711;-70
2023/05/13 04:33:15;;;;;;;;;46.75;37.50;;;;;14.72;73.27;101477.03;4957239;28;46550;-71
2023/05/13 04:35:41;;;;;;;;;47.50;37.75;;;;;14.73;72.64;101476.16;4955328;28;45442;-71
2023/05/13 04:38:07;;;;;;;;;57.25;40.25;;;;;14.72;72.36;101472.66;4955821;28;45833;-69
2023/05/13 04:40:32;;;;;;;;;60.50;45.50;;;;;14.67;72.93;101455.09;4959275;28;45464;-69
2023/05/13 04:42:58;;;;;;;;;53.75;40.00;;;;;14.69;72.76;101471.75;4955674;28;46031;-69
2023/05/13 04:45:23;;;;;;;;;55.50;44.25;;;;;14.72;72.70;101474.41;4955048;28;45448;-70
2023/05/13 04:47:49;;;;;;;;;51.50;40.25;;;;;14.77;73.13;101484.06;4955817;28;45472;-70
2023/05/13 04:50:15;;;;;;;;;53.50;40.50;;;;;14.65;72.73;101465.63;4959760;28;45456;-69
2023/05/13 04:52:41;;;;;;;;;47.00;36.25;;;;;14.81;72.49;101496.34;4940383;28;46215;-69
2023/05/13 04:55:08;;;;;;;;;48.25;36.25;;;;;14.85;72.64;101491.94;4935649;28;45907;-70
2023/05/13 04:57:34;;;;;;;;;54.00;41.50;;;;;14.83;72.05;101489.31;4937971;28;45383;-70
2023/05/13 05:00:00;;;;;;;;;56.00;43.25;;;;;14.79;71.84;101477.00;4970360;28;45516;-69
2023/05/13 05:02:28;;;;;;;;;54.00;43.75;;;;;14.93;72.20;101503.34;4974618;28;45400;-69
2023/05/13 05:04:54;;;;;;;;;48.25;40.00;;;;;14.83;72.31;101485.81;4976111;28;45576;-70
2023/05/13 05:07:20;;;;;;;;;50.25;39.25;;;;;14.98;71.92;101513.88;4977500;28;45386;-69
2023/05/13 05:09:46;;;;;;;;;54.00;41.00;;;;;14.92;71.88;101495.44;4978389;28;45400;-69
2023/05/13 05:12:12;;;;;;;;;50.00;39.00;;;;;14.98;71.42;101514.75;4977246;28;45510;-70
2023/05/13 05:14:37;;;;;;;;;54.00;41.50;;;;;14.96;71.38;101507.72;4974558;28;45305;-70
2023/05/13 05:17:03;;;;;;;;;58.00;43.75;;;;;15.05;71.87;101524.41;4976898;28;45366;-70
2023/05/13 05:19:28;;;;;;;;;57.00;41.50;;;;;15.00;71.49;101509.47;4977671;28;45534;-69
2023/05/13 05:21:54;;;;;;;;;52.00;41.75;;;;;15.05;71.46;101516.47;4977390;28;46798;-69
2023/05/13 05:24:20;;;;;;;;;51.25;41.25;;;;;15.15;70.90;101532.28;4974607;28;45653;-70
2023/05/13 05:26:46;;;;;;;;;46.50;37.00;;;;;15.14;70.41;101522.59;4973591;28;45383;-70
2023/05/13 05:29:11;;;;;;;;;50.25;39.25;;;;;15.19;70.37;101520.84;4974501;28;45455;-70
2023/05/13 05:31:37;;;;;;;;;58.25;43.25;;;;;15.26;69.97;101531.34;4976511;28;45896;-70
2023/05/13 05:34:03;;;;;;;;;53.50;43.25;;;;;15.26;70.05;101526.06;4975354;28;45625;-70
2023/05/13 05:36:28;;;;;;;;;53.50;43.50;;;;;15.32;69.77;101527.78;4973645;28;45639;-70
2023/05/13 05:38:54;;;;;;;;;46.75;37.50;;;;;15.42;69.31;101534.78;4976665;28;45360;-71
2023/05/13 05:41:21;;;;;;;;;57.75;39.50;;;;;15.51;69.29;101546.19;4978688;28;46077;-70
2023/05/13 05:43:47;;;;;;;;;59.00;42.25;;;;;15.59;68.37;101555.81;4978495;28;45470;-69
2023/05/13 05:46:12;;;;;;;;;56.75;42.50;;;;;15.63;68.47;101552.25;4974747;28;45438;-69
2023/05/13 05:48:38;;;;;;;;;52.75;37.50;;;;;15.73;68.24;101552.22;4972835;28;45432;-69
2023/05/13 05:51:04;;;;;;;;;42.75;34.25;;;;;15.78;68.19;101556.63;4974563;28;45372;-69
2023/05/13 05:53:30;;;;;;;;;53.25;42.00;;;;;15.82;67.80;101553.06;4958465;28;45345;-69
2023/05/13 05:55:56;;;;;;;;;50.75;40.75;;;;;15.89;67.34;101559.16;4953831;28;45420;-69
2023/05/13 05:58:21;;;;;;;;;47.25;35.50;;;;;16.04;66.66;101567.00;4969226;28;45675;-70
2023/05/13 06:00:47;;;;;;;;;56.75;44.50;;;;;16.17;66.10;101569.56;4956163;28;46244;-69
2023/05/13 06:03:12;;;;;;;;;47.75;38.00;;;;;16.22;66.07;101571.25;4958977;28;45440;-70
2023/05/13 06:05:38;;;;;;;;;48.75;38.25;;;;;16.26;65.57;101572.13;4957520;28;45464;-69
2023/05/13 06:08:04;;;;;;;;;49.50;37.00;;;;;16.31;65.71;101572.97;4956906;28;45501;-70
2023/05/13 06:10:29;;;;;;;;;55.00;42.00;;;;;16.33;65.52;101579.13;4957653;28;45830;-70
2023/05/13 06:12:55;;;;;;;;;46.75;38.50;;;;;16.41;65.24;101573.75;4958503;28;45337;-70
2023/05/13 06:15:21;;;;;;;;;44.25;34.50;;;;;16.49;65.03;101571.91;4956780;28;45845;-70
2023/05/13 06:17:46;;;;;;;;;45.25;36.75;;;;;16.56;64.81;101581.53;4957752;28;45521;-70
2023/05/13 06:20:12;;;;;;;;;45.25;36.00;;;;;16.51;65.05;101580.69;4957273;28;45476;-70
2023/05/13 06:22:39;;;;;;;;;53.25;40.75;;;;;16.52;64.62;101588.63;4971965;28;45534;-69
2023/05/13 06:25:05;;;;;;;;;45.25;37.50;;;;;16.64;64.43;101585.00;4956191;28;45676;-71
2023/05/13 06:27:32;;;;;;;;;44.00;36.25;;;;;16.73;63.79;101581.41;4957738;28;45507;-69
2023/05/13 06:29:58;;;;;;;;;40.00;35.25;;;;;16.91;63.42;101594.44;4957468;28;45699;-70
2023/05/13 06:32:24;;;;;;;;;48.00;35.50;;;;;17.02;62.83;101594.34;4957397;28;45644;-69
2023/05/13 06:34:51;;;;;;;;;39.75;34.00;;;;;17.15;62.93;101584.47;4956116;28;45477;-69
2023/05/13 06:37:17;;;;;;;;;40.25;33.00;;;;;17.30;62.17;101594.03;4956673;28;45583;-70
2023/05/13 06:39:43;;;;;;;;;58.50;43.75;;;;;17.48;61.93;101596.44;4961463;28;46089;-70
2023/05/13 06:42:08;;;;;;;;;47.50;39.75;;;;;17.57;61.21;101598.97;4959838;28;45247;-70
2023/05/13 06:44:34;;;;;;;;;46.50;37.75;;;;;17.67;60.90;101596.19;4955944;28;45397;-69
2023/05/13 06:47:01;;;;;;;;;41.25;34.50;;;;;17.77;60.92;101611.97;4956666;28;45805;-71
2023/05/13 06:49:27;;;;;;;;;39.50;33.50;;;;;17.86;60.83;101608.31;4957414;28;45742;-69
2023/05/13 06:51:52;;;;;;;;;47.75;38.50;;;;;17.88;60.34;101597.69;4948056;28;45382;-71
2023/05/13 06:54:18;;;;;;;;;43.25;36.00;;;;;17.76;60.51;101593.41;4940637;28;45426;-69
2023/05/13 06:56:43;;;;;;;;;49.00;36.25;;;;;17.82;60.31;101596.03;4939161;28;45468;-70
2023/05/13 06:59:09;;;;;;;;;41.00;33.25;;;;;17.99;60.06;101606.38;4936030;28;46032;-69
2023/05/13 07:01:34;;;;;;;;;48.25;38.00;;;;;18.08;60.03;101602.69;4937357;28;45447;-69
2023/05/13 07:04:00;;;;;;;;;49.25;39.50;;;;;17.88;59.76;101590.63;4936232;28;46080;-70
2023/05/13 07:06:25;;;;;;;;;47.75;39.75;;;;;17.96;59.78;101609.94;4936680;28;45770;-69
2023/05/13 07:08:51;;;;;;;;;48.25;38.00;;;;;17.74;59.62;101577.53;4937205;28;45446;-71
2023/05/13 07:11:16;;;;;;;;;52.25;41.75;;;;;17.97;59.78;101602.88;4937108;28;45366;-71
2023/05/13 07:13:43;;;;;;;;;40.25;35.50;;;;;18.08;59.25;101600.94;4937485;28;45426;-70
2023/05/13 07:16:08;;;;;;;;;51.75;40.25;;;;;18.20;58.78;101605.19;4937703;28;45342;-70
2023/05/13 07:18:34;;;;;;;;;47.25;37.75;;;;;18.25;58.65;101611.28;4936873;28;46032;-70
2023/05/13 07:21:00;;;;;;;;;47.25;37.50;;;;;18.31;58.39;101616.47;4935563;28;45487;-70
2023/05/13 07:23:25;;;;;;;;;47.25;38.75;;;;;18.26;58.18;101599.75;4937785;28;45645;-69
2023/05/13 07:25:51;;;;;;;;;49.00;40.75;;;;;18.26;57.88;101599.75;4937152;28;45584;-69
2023/05/13 07:28:19;;;;;;;;;51.00;38.25;;;;;18.31;57.88;101605.00;4940074;28;47731;-70
2023/05/13 07:30:45;;;;;;;;;48.75;38.75;;;;;18.40;57.89;101607.50;4943335;28;45509;-70
2023/05/13 07:33:11;;;;;;;;;48.75;40.25;;;;;18.33;58.08;101609.38;4920226;28;45669;-70
2023/05/13 07:35:37;;;;;;;;;49.25;39.00;;;;;18.17;58.07;101607.84;4937481;28;45355;-68
2023/05/13 07:38:03;;;;;;;;;46.25;36.75;;;;;18.07;58.72;101608.91;4938644;28;47490;-69
2023/05/13 07:40:28;;;;;;;;;48.50;39.00;;;;;17.94;58.96;101614.41;4937343;28;45544;-70
2023/05/13 07:42:54;;;;;;;;;55.25;42.50;;;;;17.83;59.46;101616.31;4937103;28;45529;-70
2023/05/13 07:45:19;;;;;;;;;50.00;40.25;;;;;17.68;59.33;101613.84;4936700;28;45439;-70
2023/05/13 07:47:45;;;;;;;;;47.75;37.50;;;;;17.56;59.48;101609.59;4951794;28;45732;-70
2023/05/13 07:50:11;;;;;;;;;51.75;41.50;;;;;17.51;59.81;101604.34;4959946;28;45505;-69
2023/05/13 07:52:37;;;;;;;;;45.00;35.75;;;;;17.59;60.09;101617.50;4945445;28;45507;-70
2023/05/13 07:55:03;;;;;;;;;50.75;38.50;;;;;17.66;60.14;101629.75;4942842;28;45554;-70
2023/05/13 07:57:28;;;;;;;;;52.00;39.75;;;;;17.64;59.97;101626.25;4947418;28;48045;-70
2023/05/13 07:59:54;;;;;;;;;50.50;40.00;;;;;17.71;59.75;101624.41;4936459;28;45394;-70
2023/05/13 08:02:19;;;;;;;;;47.50;36.75;;;;;17.64;60.01;101620.94;4935163;28;45500;-69
2023/05/13 08:04:45;;;;;;;;;55.00;42.50;;;;;17.53;60.26;101604.31;4943668;28;45441;-70
2023/05/13 08:07:10;;;;;;;;;62.50;47.50;;;;;17.55;60.69;101634.31;4946556;28;47720;-70
2023/05/13 08:09:36;;;;;;;;;60.25;46.75;;;;;17.45;60.99;101630.03;4949550;28;45422;-69
2023/05/13 08:12:02;;;;;;;;;57.00;45.50;;;;;17.42;61.15;101638.03;4944823;28;45444;-69
2023/05/13 08:14:28;;;;;;;;;53.00;41.75;;;;;17.16;61.47;101599.50;4942141;28;45666;-72
2023/05/13 08:16:53;;;;;;;;;58.75;45.75;;;;;17.30;61.71;101626.69;4936301;28;46624;-68
2023/05/13 08:19:19;;;;;;;;;54.25;41.00;;;;;17.32;61.55;101645.16;4935764;28;45905;-71
2023/05/13 08:21:45;;;;;;;;;56.50;43.50;;;;;17.21;61.53;101616.19;4935586;28;45770;-70
2023/05/13 08:24:11;;;;;;;;;58.25;43.75;;;;;17.32;61.64;101629.28;4939287;28;45579;-70
2023/05/13 08:26:37;;;;;;;;;61.50;48.50;;;;;17.43;61.37;101645.06;4934932;28;46844;-70
2023/05/13 08:29:02;;;;;;;;;57.25;44.25;;;;;17.33;61.57;101634.56;4938573;28;45452;-69
2023/05/13 08:31:28;;;;;;;;;57.75;44.75;;;;;17.37;61.54;101631.00;4936529;28;45464;-70
2023/05/13 08:33:53;;;;;;;;;58.25;44.75;;;;;17.52;61.46;101647.59;4935230;28;45900;-70
2023/05/13 08:36:20;;;;;;;;;65.00;45.75;;;;;17.49;61.24;101637.94;4939784;28;45593;-70
2023/05/13 08:38:46;;;;;;;;;58.75;46.00;;;;;17.58;66.05;101642.22;4953895;28;45468;-70
2023/05/13 08:41:13;;;;;;;;;64.00;47.75;;;;;17.71;64.67;101650.91;4962821;28;45741;-71
2023/05/13 08:43:39;;;;;;;;;61.75;46.25;;;;;17.84;64.67;101647.19;4965370;28;45351;-69
2023/05/13 08:46:08;;;;;;;;;57.50;45.25;;;;;17.83;66.01;101642.81;4965231;28;46170;-70
2023/05/13 08:48:35;;;;;;;;;65.00;48.50;;;;;17.93;63.88;101635.59;4956263;28;45257;-69
2023/05/13 08:51:01;;;;;;;;;60.25;47.50;;;;;18.38;64.22;101646.41;4955181;28;45657;-71
2023/05/13 08:53:27;;;;;;;;;63.50;45.50;;;;;18.45;63.37;101634.81;4959994;28;45621;-69
2023/05/13 08:55:54;;;;;;;;;66.25;48.25;;;;;18.57;62.46;101642.56;4956023;28;45642;-70
2023/05/13 08:58:19;;;;;;;;;63.00;47.00;;;;;18.70;60.25;101637.94;4959166;28;45298;-71
2023/05/13 09:00:47;;;;;;;;;62.25;47.00;;;;;18.70;59.10;101634.38;4958815;28;45523;-71
2023/05/13 09:03:13;;;;;;;;;61.00;46.25;;;;;18.68;58.61;101618.50;4959571;28;45527;-70
2023/05/13 09:05:41;;;;;;;;;66.25;48.50;;;;;18.91;58.51;101642.03;4959165;28;45949;-71
2023/05/13 09:08:08;;;;;;;;;64.25;50.25;;;;;18.83;58.14;101622.69;4956949;28;45283;-70
2023/05/13 09:10:34;;;;;;;;;66.00;50.75;;;;;18.55;58.96;101617.84;4953434;28;45545;-71
2023/05/13 09:13:00;;;;;;;;;103.75;88.75;;;;;18.62;59.20;101629.22;4958298;28;45301;-71
2023/05/13 09:15:27;;;;;;;;;226.75;191.00;;;;;18.81;58.90;101635.13;4955293;28;45496;-71
2023/05/13 09:18:03;;;;;;;;;156.33;132.00;;;;;18.87;58.03;101623.53;4954895;28;45476;-71
2023/05/13 09:20:29;;;;;;;;;95.75;81.00;;;;;18.93;57.70;101634.03;4957619;28;45463;-71
2023/05/13 09:23:09;;;;;;;;;72.50;54.00;;;;;18.98;57.26;101645.41;4955494;28;45445;-72
2023/05/13 09:25:38;;;;;;;;;92.25;76.00;;;;;18.91;60.12;101636.72;4954094;28;46434;-70
2023/05/13 09:28:06;;;;;;;;;87.50;70.00;;;;;18.90;59.59;101634.09;4953270;28;45577;-71
2023/05/13 09:30:40;;;;;;;;;79.50;64.00;;;;;18.91;60.02;101642.03;4953948;28;45837;-72
2023/05/13 09:33:14;;;;;;;;;76.25;57.75;;;;;18.86;59.91;101643.88;4952973;28;45615;-71
2023/05/13 09:35:53;;;;;;;;;99.50;84.50;;;;;18.90;60.71;101653.53;4934270;28;45468;-75
2023/05/13 09:38:23;;;;;;;;;69.75;52.75;;;;;18.80;58.39;101662.56;4935703;28;45418;-71
2023/05/13 09:40:56;;;;;;;;;64.25;49.00;;;;;18.61;58.23;101654.88;4938942;28;45555;-71
2023/05/13 09:43:24;;;;;;;;;65.75;49.50;;;;;18.58;58.21;101654.94;4940296;28;45628;-71
2023/05/13 09:45:54;;;;;;;;;63.75;49.25;;;;;18.46;57.64;101627.72;4940604;28;46196;-72
2023/05/13 09:48:25;;;;;;;;;53.00;45.25;;;;;18.84;56.90;101646.56;4938732;28;45294;-72
2023/05/13 09:50:52;;;;;;;;;66.75;50.25;;;;;19.16;56.26;101629.16;4941926;28;45513;-72
2023/05/13 09:53:21;;;;;;;;;63.75;48.50;;;;;19.45;55.82;101648.94;4938638;28;45410;-73
2023/05/13 09:55:48;;;;;;;;;61.25;47.75;;;;;19.53;55.40;101641.72;4938998;28;46220;-72
2023/05/13 09:58:13;;;;;;;;;58.25;46.75;;;;;19.58;55.23;101638.94;4938469;28;45517;-71
2023/05/13 10:00:40;;;;;;;;;59.25;45.75;;;;;19.68;54.82;101645.84;4938643;28;45437;-71
2023/05/13 10:03:09;;;;;;;;;65.50;48.25;;;;;19.55;54.37;101631.03;4941872;28;45441;-72
2023/05/13 10:05:40;;;;;;;;;59.75;45.75;;;;;19.43;54.07;101603.81;4938330;28;45992;-70
2023/05/13 10:08:10;;;;;;;;;61.00;47.25;;;;;19.89;53.70;101644.50;4939429;28;45361;-71
2023/05/13 10:10:41;;;;;;;;;57.00;45.75;;;;;19.90;53.46;101639.13;4942963;28;45544;-70
2023/05/13 10:13:13;;;;;;;;;55.00;43.00;;;;;20.09;53.42;101642.25;4938660;28;45545;-73
2023/05/13 10:15:49;;;;;;;;;59.00;46.00;;;;;20.28;53.06;101620.53;4937193;28;47752;-71
2023/05/13 10:18:15;;;;;;;;;63.50;49.00;;;;;20.49;52.39;101624.47;4937898;28;45361;-71
2023/05/13 10:20:41;;;;;;;;;58.75;47.00;;;;;20.42;52.90;101615.75;4938485;28;45333;-72
2023/05/13 10:23:09;;;;;;;;;60.00;46.50;;;;;20.64;52.19;101602.78;4940293;28;45380;-72
2023/05/13 10:25:38;;;;;;;;;58.75;46.00;;;;;20.78;51.69;101583.81;4942451;28;46571;-71
2023/05/13 10:28:05;;;;;;;;;58.50;46.25;;;;;20.99;50.89;101598.31;4942546;28;45327;-72
2023/05/13 10:30:32;;;;;;;;;55.00;41.25;;;;;21.22;50.73;101618.13;4942663;28;45419;-71
2023/05/13 10:33:00;;;;;;;;;64.25;47.25;;;;;21.17;50.30;101599.59;4940454;28;45298;-71
2023/05/13 10:35:31;;;;;;;;;58.25;45.00;;;;;21.20;50.37;101619.97;4938718;28;45375;-71
2023/05/13 10:38:16;;;;;;;;;58.50;46.00;;;;;21.31;49.85;101617.88;4940340;28;45382;-71
2023/05/13 10:41:07;;;;;;;;;60.50;46.00;;;;;21.51;49.93;101618.19;4938454;28;45437;-71
2023/05/13 10:43:34;;;;;;;;;54.25;43.50;;;;;21.70;49.71;101622.97;4936447;28;45503;-70
2023/05/13 10:46:03;;;;;;;;;57.25;44.50;;;;;21.78;49.64;101618.25;4937897;28;45411;-72
2023/05/13 10:48:51;;;;;;;;;56.00;40.75;;;;;21.75;49.20;101600.56;4936990;28;45403;-72
2023/05/13 10:51:23;;;;;;;;;52.67;41.33;;;;;21.87;49.04;101601.09;4960856;28;45346;-72
2023/05/13 10:53:57;;;;;;;;;52.00;41.50;;;;;21.88;48.93;101590.41;4961532;28;45460;-72
2023/05/13 10:56:27;;;;;;;;;52.00;40.75;;;;;21.97;49.20;101595.44;4958109;28;45497;-71
2023/05/13 10:59:05;;;;;;;;;58.67;42.67;;;;;21.97;49.05;101597.22;4956597;28;45827;-70
2023/05/13 11:01:42;;;;;;;;;49.00;39.00;;;;;22.00;48.93;101590.00;4956865;28;45643;-71
2023/05/13 11:04:13;;;;;;;;;58.50;43.75;;;;;22.05;48.67;101597.88;4960401;28;45526;-72
2023/05/13 11:06:41;;;;;;;;;53.75;42.25;;;;;22.11;48.67;101599.44;4956689;28;45709;-71
2023/05/13 11:09:14;;;;;;;;;50.33;40.33;;;;;22.09;48.70;101570.19;4958949;28;45410;-71